Time;durP1;ratioP1;P1;durP2;ratioP2;P2;SDS_P1;SDS_P2;PMS_P1;PMS_P2;Temp;Humidity;BMP_temperature;BMP_pressure;BME280_temperature;BME280_humidity;BME280_pressure;Samples;Min_cycle;Max_cycle;Signal;HPM_P1;HPM_P2
2024/01/06 00:00:34;;;;;;;18.73;13.83;;;5.00;99.90;;;;;;5000628;28;20014;-80
2024/01/06 00:03:00;;;;;;;19.63;14.10;;;5.10;99.90;;;;;;5001177;28;20027;-80
2024/01/06 00:05:26;;;;;;;16.87;14.07;;;5.00;99.90;;;;;;5001363;28;20030;-80
2024/01/06 00:07:51;;;;;;;19.43;15.00;;;5.10;99.90;;;;;;5001426;28;20053;-78
2024/01/06 00:10:17;;;;;;;19.60;15.00;;;5.10;99.90;;;;;;5001982;28;20044;-79
2024/01/06 00:12:43;;;;;;;18.37;14.30;;;5.10;99.90;;;;;;5001307;28;20046;-80
2024/01/06 00:15:08;;;;;;;21.03;14.60;;;5.00;99.90;;;;;;4984093;28;20034;-80
2024/01/06 00:17:34;;;;;;;20.23;16.13;;;5.00;99.90;;;;;;5000433;28;20023;-79
2024/01/06 00:20:02;;;;;;;21.73;14.80;;;5.10;99.90;;;;;;5000477;28;20105;-79
2024/01/06 00:22:27;;;;;;;23.00;15.57;;;5.10;99.90;;;;;;5002093;28;20026;-79
2024/01/06 00:24:53;;;;;;;21.07;15.53;;;5.10;99.90;;;;;;5000632;28;20026;-79
2024/01/06 00:27:18;;;;;;;20.17;15.63;;;5.10;99.90;;;;;;5001606;28;20053;-80
2024/01/06 00:29:44;;;;;;;26.37;16.87;;;5.10;99.90;;;;;;5002783;28;20031;-80
2024/01/06 00:32:09;;;;;;;27.10;17.57;;;5.00;99.90;;;;;;5002988;28;20021;-79
2024/01/06 00:34:35;;;;;;;23.70;16.63;;;5.00;99.90;;;;;;5000741;28;20030;-80
2024/01/06 00:37:00;;;;;;;20.80;16.20;;;5.00;99.90;;;;;;5001394;28;20027;-80
2024/01/06 00:39:26;;;;;;;21.20;16.27;;;5.00;99.90;;;;;;5001107;28;20045;-80
2024/01/06 00:41:51;;;;;;;21.60;16.50;;;5.00;99.90;;;;;;5002142;28;20045;-80
2024/01/06 00:44:17;;;;;;;22.97;16.83;;;5.00;99.90;;;;;;5000528;28;20026;-80
2024/01/06 00:46:43;;;;;;;19.40;15.77;;;5.00;99.90;;;;;;5000640;28;20073;-80
2024/01/06 00:49:08;;;;;;;22.30;16.53;;;5.00;99.90;;;;;;5001869;28;20031;-80
2024/01/06 00:51:34;;;;;;;20.57;16.43;;;5.00;99.90;;;;;;5002022;28;20030;-80
2024/01/06 00:53:59;;;;;;;20.60;16.20;;;5.00;99.90;;;;;;5000577;28;20107;-80
2024/01/06 00:56:26;;;;;;;19.70;16.13;;;5.00;99.90;;;;;;5000742;28;20043;-80
2024/01/06 00:58:52;;;;;;;23.03;15.73;;;5.00;99.90;;;;;;5001131;28;20383;-80
2024/01/06 01:01:18;;;;;;;22.13;17.17;;;4.90;99.90;;;;;;4999228;28;20038;-79
2024/01/06 01:03:43;;;;;;;18.90;15.87;;;4.90;99.90;;;;;;4998460;28;20146;-78
2024/01/06 01:06:09;;;;;;;20.77;16.83;;;4.90;99.90;;;;;;4999842;28;20027;-79
2024/01/06 01:08:34;;;;;;;21.97;16.47;;;4.90;99.90;;;;;;5000420;28;20213;-80
2024/01/06 01:11:00;;;;;;;18.00;16.03;;;4.90;99.90;;;;;;5000617;28;20033;-79
2024/01/06 01:13:26;;;;;;;18.67;15.63;;;4.90;99.90;;;;;;5000716;28;20050;-79
2024/01/06 01:15:51;;;;;;;20.97;16.47;;;4.90;99.90;;;;;;4998290;28;20030;-80
2024/01/06 01:18:17;;;;;;;23.53;17.90;;;4.90;99.90;;;;;;5000140;28;20034;-80
2024/01/06 01:20:42;;;;;;;22.20;17.33;;;4.90;99.90;;;;;;5000909;28;20029;-80
2024/01/06 01:23:08;;;;;;;24.20;18.63;;;4.80;99.90;;;;;;5000751;28;20040;-79
2024/01/06 01:25:33;;;;;;;20.97;16.50;;;4.80;99.90;;;;;;5000467;28;20026;-79
2024/01/06 01:27:59;;;;;;;20.23;16.33;;;4.80;99.90;;;;;;4997205;28;20030;-82
2024/01/06 01:30:25;;;;;;;20.57;16.70;;;4.90;99.90;;;;;;5000074;28;20037;-80
2024/01/06 01:32:50;;;;;;;21.90;17.00;;;4.90;99.90;;;;;;5000928;28;20097;-79
2024/01/06 01:35:16;;;;;;;21.63;16.43;;;4.90;99.90;;;;;;5002775;28;20042;-79
2024/01/06 01:37:42;;;;;;;18.40;16.00;;;4.90;99.90;;;;;;5004488;28;20033;-80
2024/01/06 01:40:08;;;;;;;22.60;16.83;;;4.90;99.90;;;;;;5004574;28;20048;-81
2024/01/06 01:42:33;;;;;;;22.50;17.43;;;4.90;99.90;;;;;;5004841;28;20062;-80
2024/01/06 01:44:59;;;;;;;22.17;17.10;;;4.90;99.90;;;;;;5003876;28;20030;-80
2024/01/06 01:47:25;;;;;;;20.57;16.57;;;4.90;99.90;;;;;;5002843;28;20030;-80
2024/01/06 01:49:52;;;;;;;21.77;17.27;;;4.90;99.90;;;;;;4985132;28;20049;-79
2024/01/06 01:52:18;;;;;;;22.57;17.90;;;4.90;99.90;;;;;;5004684;28;20025;-79
2024/01/06 01:54:45;;;;;;;22.53;17.73;;;4.90;99.90;;;;;;5002748;28;20036;-80
2024/01/06 01:57:12;;;;;;;23.43;18.53;;;4.90;99.90;;;;;;4984770;28;20583;-79
2024/01/06 01:59:38;;;;;;;22.43;18.13;;;4.90;99.90;;;;;;5002053;28;20038;-79
2024/01/06 02:02:04;;;;;;;20.80;17.63;;;4.90;99.90;;;;;;5002295;28;20038;-80
2024/01/06 02:04:29;;;;;;;21.77;18.00;;;4.90;99.90;;;;;;4999725;28;20034;-80
2024/01/06 02:06:55;;;;;;;21.07;17.30;;;4.90;99.90;;;;;;5001011;28;20049;-79
2024/01/06 02:09:23;;;;;;;22.23;18.10;;;4.90;99.90;;;;;;5001582;28;20049;-79
2024/01/06 02:11:48;;;;;;;23.73;18.17;;;4.90;99.90;;;;;;5003009;28;20488;-78
2024/01/06 02:14:13;;;;;;;21.20;17.60;;;4.90;99.90;;;;;;5002581;28;20027;-79
2024/01/06 02:16:39;;;;;;;22.63;18.17;;;4.90;99.90;;;;;;4999885;28;20092;-80
2024/01/06 02:19:08;;;;;;;22.73;18.20;;;4.90;99.90;;;;;;5000187;28;20042;-80
2024/01/06 02:21:35;;;;;;;22.27;17.37;;;4.90;99.90;;;;;;5002869;28;20041;-79
2024/01/06 02:24:01;;;;;;;19.37;15.83;;;4.90;99.90;;;;;;5002840;28;20026;-79
2024/01/06 02:26:26;;;;;;;20.07;14.70;;;4.90;99.90;;;;;;5003207;28;20029;-80
2024/01/06 02:28:52;;;;;;;17.30;13.87;;;4.90;99.90;;;;;;4984657;28;20048;-79
2024/01/06 02:31:17;;;;;;;17.20;13.90;;;4.90;99.90;;;;;;5002609;28;20170;-80
2024/01/06 02:33:43;;;;;;;15.63;13.23;;;4.80;99.90;;;;;;5003387;28;20034;-79
2024/01/06 02:36:08;;;;;;;18.33;14.20;;;4.90;99.90;;;;;;5001630;28;20025;-80
2024/01/06 02:38:34;;;;;;;16.37;13.10;;;4.90;99.90;;;;;;5003376;28;20048;-80
2024/01/06 02:40:59;;;;;;;16.27;12.57;;;4.80;99.90;;;;;;5000854;28;20056;-79
2024/01/06 02:43:25;;;;;;;16.43;13.27;;;4.80;99.90;;;;;;4999643;28;20175;-80
2024/01/06 02:45:51;;;;;;;15.00;12.63;;;4.80;99.90;;;;;;4982948;28;20030;-78
2024/01/06 02:48:16;;;;;;;14.80;12.27;;;4.80;99.90;;;;;;5003425;28;20057;-80
2024/01/06 02:50:42;;;;;;;15.40;12.07;;;4.80;99.90;;;;;;5003118;28;20036;-80
2024/01/06 02:53:09;;;;;;;15.30;11.57;;;4.80;99.90;;;;;;5002580;28;20121;-79
2024/01/06 02:55:35;;;;;;;15.03;11.27;;;4.80;99.90;;;;;;4984167;28;20033;-79
2024/01/06 02:58:00;;;;;;;14.57;11.60;;;4.80;99.90;;;;;;4982485;28;20026;-79
2024/01/06 03:00:26;;;;;;;17.20;12.27;;;4.80;99.90;;;;;;5000172;28;20029;-79
2024/01/06 03:02:51;;;;;;;14.67;11.53;;;4.80;99.90;;;;;;4999532;28;20081;-80
2024/01/06 03:05:17;;;;;;;12.73;10.50;;;4.80;99.90;;;;;;4981594;28;20030;-79
2024/01/06 03:07:43;;;;;;;12.43;9.43;;;4.80;99.90;;;;;;4999736;28;20033;-80
2024/01/06 03:10:08;;;;;;;12.23;9.83;;;4.80;99.90;;;;;;4997938;28;20034;-80
2024/01/06 03:12:34;;;;;;;12.37;9.23;;;4.80;99.90;;;;;;5000009;28;20027;-80
2024/01/06 03:15:00;;;;;;;11.47;9.83;;;4.80;99.90;;;;;;5000463;28;20034;-80
2024/01/06 03:17:25;;;;;;;12.73;9.80;;;4.80;99.90;;;;;;4996984;28;20093;-79
2024/01/06 03:19:51;;;;;;;12.83;10.23;;;4.80;99.90;;;;;;4997404;28;20100;-80
2024/01/06 03:22:17;;;;;;;12.43;9.83;;;4.80;99.90;;;;;;4999317;28;20030;-80
2024/01/06 03:24:43;;;;;;;12.60;10.53;;;4.80;99.90;;;;;;4999285;28;20037;-80
2024/01/06 03:27:08;;;;;;;13.53;9.70;;;4.80;99.90;;;;;;4996735;28;20037;-80
2024/01/06 03:29:34;;;;;;;12.37;9.97;;;4.80;99.90;;;;;;4981392;28;20041;-79
2024/01/06 03:31:59;;;;;;;12.20;9.90;;;4.80;99.90;;;;;;4998026;28;20058;-79
2024/01/06 03:34:25;;;;;;;12.20;9.27;;;4.80;99.90;;;;;;4995153;28;20049;-80
2024/01/06 03:36:50;;;;;;;12.07;9.43;;;4.80;99.90;;;;;;4997014;28;20045;-80
2024/01/06 03:39:16;;;;;;;11.20;9.13;;;4.80;99.90;;;;;;5002591;28;20251;-79
2024/01/06 03:41:41;;;;;;;9.77;7.87;;;4.70;99.90;;;;;;5000400;28;20168;-79
2024/01/06 03:44:07;;;;;;;8.77;6.37;;;4.70;99.90;;;;;;5001194;28;20033;-79
2024/01/06 03:46:34;;;;;;;7.47;6.50;;;4.70;99.90;;;;;;5000263;28;20042;-79
2024/01/06 03:49:00;;;;;;;9.37;6.47;;;4.70;99.90;;;;;;4999411;28;20101;-80
2024/01/06 03:51:25;;;;;;;6.83;4.77;;;4.70;99.90;;;;;;4999160;28;20038;-78
2024/01/06 03:53:51;;;;;;;5.63;4.30;;;4.70;99.90;;;;;;5000609;28;20042;-80
2024/01/06 03:56:17;;;;;;;5.90;4.60;;;4.60;99.90;;;;;;4996265;28;20033;-79
2024/01/06 03:58:42;;;;;;;8.57;5.47;;;4.60;99.90;;;;;;4982385;28;20049;-80
2024/01/06 04:01:08;;;;;;;7.27;5.10;;;4.60;99.90;;;;;;5000269;28;20113;-79
2024/01/06 04:03:33;;;;;;;6.50;5.03;;;4.50;99.90;;;;;;4999571;28;20025;-80
2024/01/06 04:05:59;;;;;;;8.60;5.33;;;4.50;99.90;;;;;;5000317;28;20041;-80
2024/01/06 04:08:24;;;;;;;6.63;4.63;;;4.50;99.90;;;;;;4999064;28;20058;-78
2024/01/06 04:10:50;;;;;;;7.20;4.80;;;4.50;99.90;;;;;;5001299;28;20025;-79
2024/01/06 04:13:16;;;;;;;5.97;4.50;;;4.50;99.90;;;;;;4999455;28;20040;-80
2024/01/06 04:15:41;;;;;;;4.67;3.67;;;4.50;99.90;;;;;;5001304;28;20061;-81
2024/01/06 04:18:07;;;;;;;4.37;3.70;;;4.40;99.90;;;;;;5001754;28;20022;-79
2024/01/06 04:20:32;;;;;;;5.30;4.10;;;4.40;99.90;;;;;;4999522;28;21260;-79
2024/01/06 04:22:58;;;;;;;4.40;3.53;;;4.40;99.90;;;;;;4999069;28;20040;-79
2024/01/06 04:25:24;;;;;;;5.07;3.30;;;4.40;99.90;;;;;;5001510;28;20033;-79
2024/01/06 04:27:50;;;;;;;4.90;3.70;;;4.40;99.90;;;;;;5000690;28;20033;-79
2024/01/06 04:30:16;;;;;;;4.30;3.20;;;4.30;99.90;;;;;;5000346;28;20891;-80
2024/01/06 04:32:42;;;;;;;6.27;4.17;;;4.30;99.90;;;;;;4999875;28;20066;-81
2024/01/06 04:35:08;;;;;;;5.93;3.70;;;4.30;99.90;;;;;;4999955;28;20030;-79
2024/01/06 04:37:34;;;;;;;4.47;3.27;;;4.30;99.90;;;;;;5000207;28;20038;-80
2024/01/06 04:40:00;;;;;;;4.10;3.30;;;4.30;99.90;;;;;;4998306;28;20044;-79
2024/01/06 04:42:25;;;;;;;4.63;2.90;;;4.30;99.90;;;;;;5000257;28;21069;-79
2024/01/06 04:44:51;;;;;;;4.00;3.07;;;4.30;99.90;;;;;;4998391;28;20021;-80
2024/01/06 04:47:17;;;;;;;5.37;3.53;;;4.30;99.90;;;;;;4998565;28;20113;-80
2024/01/06 04:49:43;;;;;;;3.77;3.27;;;4.30;99.90;;;;;;4999580;28;20046;-81
2024/01/06 04:52:08;;;;;;;3.93;2.90;;;4.30;99.90;;;;;;4998985;28;20030;-79
2024/01/06 04:54:34;;;;;;;3.10;2.40;;;4.30;99.90;;;;;;4997764;28;21073;-80
2024/01/06 04:56:59;;;;;;;3.83;2.40;;;4.30;99.90;;;;;;4982022;28;20026;-80
2024/01/06 04:59:25;;;;;;;3.10;1.80;;;4.20;99.90;;;;;;4998993;28;20026;-80
2024/01/06 05:01:52;;;;;;;2.07;1.50;;;4.20;99.90;;;;;;4999827;28;20018;-79
2024/01/06 05:04:18;;;;;;;2.63;1.57;;;4.20;99.90;;;;;;5000292;28;20060;-79
2024/01/06 05:06:44;;;;;;;1.90;1.30;;;4.20;99.90;;;;;;5002223;28;20038;-80
2024/01/06 05:09:09;;;;;;;1.93;1.20;;;4.10;99.90;;;;;;5000057;28;21248;-80
2024/01/06 05:11:35;;;;;;;1.77;1.20;;;4.10;99.90;;;;;;5001823;28;20064;-80
2024/01/06 05:14:00;;;;;;;3.00;1.30;;;4.10;99.90;;;;;;5001476;28;20032;-79
2024/01/06 05:16:27;;;;;;;2.10;1.60;;;4.10;99.90;;;;;;5006081;28;20159;-80
2024/01/06 05:18:53;;;;;;;1.57;1.30;;;4.10;99.90;;;;;;5002729;28;20042;-80
2024/01/06 05:21:18;;;;;;;1.30;1.20;;;4.00;99.90;;;;;;5002327;28;20126;-79
2024/01/06 05:23:44;;;;;;;1.40;1.10;;;4.00;99.90;;;;;;5004148;28;20097;-78
2024/01/06 05:26:09;;;;;;;1.37;1.10;;;4.00;99.90;;;;;;5003364;28;20065;-80
2024/01/06 05:28:35;;;;;;;1.97;1.20;;;4.00;99.90;;;;;;5002235;28;20029;-80
2024/01/06 05:31:01;;;;;;;1.43;1.20;;;4.00;99.90;;;;;;4986199;28;20026;-79
2024/01/06 05:33:26;;;;;;;1.53;1.13;;;4.00;99.90;;;;;;5004451;28;20097;-80
2024/01/06 05:35:52;;;;;;;1.90;1.47;;;4.00;99.90;;;;;;5003984;28;20026;-79
2024/01/06 05:38:17;;;;;;;1.93;1.30;;;3.90;99.90;;;;;;5003133;28;20049;-80
2024/01/06 05:40:43;;;;;;;2.10;1.43;;;3.90;99.90;;;;;;5000475;28;20042;-79
2024/01/06 05:43:08;;;;;;;2.07;1.40;;;3.90;99.90;;;;;;5001803;28;20030;-80
2024/01/06 05:45:34;;;;;;;1.37;1.13;;;3.90;99.90;;;;;;5002921;28;20053;-80
2024/01/06 05:47:59;;;;;;;2.77;1.00;;;3.90;99.90;;;;;;5000880;28;20045;-79
2024/01/06 05:50:25;;;;;;;1.70;1.10;;;3.90;99.90;;;;;;5000891;28;20031;-79
2024/01/06 05:52:51;;;;;;;1.57;1.10;;;3.90;99.90;;;;;;5003630;28;20046;-80
2024/01/06 05:55:17;;;;;;;1.43;0.97;;;3.90;99.90;;;;;;4999079;28;20026;-79
2024/01/06 05:57:43;;;;;;;1.10;1.00;;;3.80;99.90;;;;;;5003436;28;20040;-79
2024/01/06 06:00:10;;;;;;;1.57;1.17;;;3.80;99.90;;;;;;5004369;28;20986;-80
2024/01/06 06:02:36;;;;;;;3.53;2.00;;;3.80;99.90;;;;;;5002793;28;20035;-80
2024/01/06 06:05:01;;;;;;;3.03;2.00;;;3.80;99.90;;;;;;5003447;28;20106;-80
2024/01/06 06:07:27;;;;;;;3.10;2.20;;;3.80;99.90;;;;;;5001609;28;20038;-79
2024/01/06 06:09:53;;;;;;;4.43;3.40;;;3.70;99.90;;;;;;5003577;28;20041;-79
2024/01/06 06:12:19;;;;;;;5.83;3.33;;;3.70;99.90;;;;;;5001841;28;20030;-79
2024/01/06 06:14:44;;;;;;;3.30;2.10;;;3.70;99.90;;;;;;5003497;28;20121;-81
2024/01/06 06:17:10;;;;;;;4.13;1.83;;;3.70;99.90;;;;;;5001857;28;20057;-79
2024/01/06 06:19:35;;;;;;;5.07;2.00;;;3.70;99.90;;;;;;5003591;28;20037;-79
2024/01/06 06:22:01;;;;;;;3.53;2.30;;;3.70;99.90;;;;;;5004898;28;20035;-79
2024/01/06 06:24:27;;;;;;;5.87;2.27;;;3.60;99.90;;;;;;5004656;28;20118;-79
2024/01/06 06:26:52;;;;;;;4.27;1.93;;;3.60;99.90;;;;;;5002472;28;21475;-79
2024/01/06 06:29:18;;;;;;;4.37;2.20;;;3.60;99.90;;;;;;5004127;28;20038;-79
2024/01/06 06:31:44;;;;;;;5.60;2.63;;;3.60;99.90;;;;;;5004153;28;20134;-79
2024/01/06 06:34:10;;;;;;;4.97;2.70;;;3.50;99.90;;;;;;5004541;28;20030;-80
2024/01/06 06:36:36;;;;;;;4.40;2.47;;;3.50;99.90;;;;;;5003128;28;20069;-79
2024/01/06 06:39:04;;;;;;;5.63;2.67;;;3.50;99.90;;;;;;5005703;28;20099;-79
2024/01/06 06:41:29;;;;;;;7.80;3.93;;;3.50;99.90;;;;;;5004262;28;20044;-79
2024/01/06 06:43:57;;;;;;;7.70;3.70;;;3.50;99.90;;;;;;5003931;28;20971;-81
2024/01/06 06:46:23;;;;;;;9.43;3.00;;;3.50;99.90;;;;;;5002491;28;20018;-80
2024/01/06 06:48:50;;;;;;;5.33;2.73;;;3.50;99.90;;;;;;5000784;28;20030;-80
2024/01/06 06:51:15;;;;;;;6.00;2.60;;;3.50;99.90;;;;;;5001612;28;20057;-80
2024/01/06 06:53:41;;;;;;;8.90;3.47;;;3.50;99.90;;;;;;5001137;28;20030;-80
2024/01/06 06:56:06;;;;;;;10.53;4.30;;;3.50;99.90;;;;;;5000844;28;21199;-79
2024/01/06 06:58:36;;;;;;;19.10;8.30;;;3.50;99.90;;;;;;5003483;28;20094;-82
2024/01/06 07:01:02;;;;;;;16.70;8.13;;;3.50;99.90;;;;;;5002764;28;20049;-81
2024/01/06 07:03:27;;;;;;;9.70;3.97;;;3.50;99.90;;;;;;4995144;28;20640;-76
2024/01/06 07:05:53;;;;;;;6.70;3.20;;;3.50;99.90;;;;;;4996653;28;20033;-83
2024/01/06 07:08:19;;;;;;;5.60;2.63;;;3.50;99.90;;;;;;4994408;28;20038;-83
2024/01/06 07:10:45;;;;;;;5.17;2.20;;;3.50;99.90;;;;;;4997243;28;20448;-83
2024/01/06 07:13:10;;;;;;;7.17;2.20;;;3.50;99.90;;;;;;5000379;28;20025;-83
2024/01/06 07:15:36;;;;;;;7.03;2.30;;;3.50;99.90;;;;;;4996381;28;20041;-83
2024/01/06 07:18:01;;;;;;;5.63;2.97;;;3.40;99.90;;;;;;4998334;28;20504;-83
2024/01/06 07:20:27;;;;;;;5.70;3.27;;;3.40;99.90;;;;;;4998871;28;20817;-82
2024/01/06 07:22:53;;;;;;;6.73;3.03;;;3.40;99.90;;;;;;4996734;28;20501;-83
2024/01/06 07:25:18;;;;;;;7.23;3.00;;;3.40;99.90;;;;;;4996441;28;20034;-82
2024/01/06 07:27:44;;;;;;;7.73;3.47;;;3.40;99.90;;;;;;4990584;28;20045;-82
2024/01/06 07:30:10;;;;;;;9.53;3.57;;;3.40;99.90;;;;;;4994030;28;20065;-83
2024/01/06 07:32:35;;;;;;;7.20;2.80;;;3.40;99.90;;;;;;4992521;28;20053;-82
2024/01/06 07:35:02;;;;;;;7.70;2.80;;;3.40;99.90;;;;;;4995475;28;20045;-82
2024/01/06 07:37:27;;;;;;;8.47;2.70;;;3.40;99.90;;;;;;4994647;28;20072;-83
2024/01/06 07:39:53;;;;;;;6.97;2.80;;;3.40;99.90;;;;;;4995212;28;20089;-82
2024/01/06 07:42:18;;;;;;;5.67;2.60;;;3.40;99.90;;;;;;4995063;28;20061;-81
2024/01/06 07:44:44;;;;;;;7.13;2.60;;;3.40;99.90;;;;;;4993945;28;20141;-82
2024/01/06 07:47:10;;;;;;;8.43;3.00;;;3.40;99.90;;;;;;4979620;28;21201;-82
2024/01/06 07:49:36;;;;;;;6.47;2.70;;;3.50;99.90;;;;;;4976539;28;20038;-83
2024/01/06 07:52:02;;;;;;;6.40;2.87;;;3.40;99.90;;;;;;4992454;28;20363;-82
2024/01/06 07:54:27;;;;;;;7.60;3.03;;;3.50;99.90;;;;;;4994276;28;20270;-83
2024/01/06 07:56:53;;;;;;;6.73;2.90;;;3.50;99.90;;;;;;4993020;28;20026;-82
2024/01/06 07:59:19;;;;;;;9.73;3.30;;;3.50;99.90;;;;;;4997096;28;20027;-82
2024/01/06 08:01:44;;;;;;;8.30;3.67;;;3.50;99.90;;;;;;4995610;28;20042;-82
2024/01/06 08:04:10;;;;;;;8.90;3.60;;;3.50;99.90;;;;;;4996333;28;20052;-83
2024/01/06 08:06:35;;;;;;;7.13;3.80;;;3.60;99.90;;;;;;4994793;28;20037;-83
2024/01/06 08:09:01;;;;;;;10.67;4.30;;;3.60;99.90;;;;;;4994761;28;20034;-82
2024/01/06 08:11:27;;;;;;;11.10;4.10;;;3.60;99.90;;;;;;4993814;28;20029;-82
2024/01/06 08:13:52;;;;;;;7.87;4.40;;;3.60;99.90;;;;;;4995446;28;20041;-83
2024/01/06 08:16:18;;;;;;;9.37;4.73;;;3.60;99.90;;;;;;4993160;28;20493;-83
2024/01/06 08:18:45;;;;;;;10.20;4.70;;;3.60;99.90;;;;;;4994046;28;20088;-83
2024/01/06 08:21:10;;;;;;;9.70;4.70;;;3.60;99.90;;;;;;4995600;28;20034;-83
2024/01/06 08:23:36;;;;;;;7.97;4.50;;;3.60;99.90;;;;;;4994726;28;20524;-83
2024/01/06 08:26:02;;;;;;;7.23;3.90;;;3.70;99.90;;;;;;4996195;28;20033;-83
2024/01/06 08:28:27;;;;;;;12.60;3.73;;;3.60;99.90;;;;;;4995013;28;20264;-83
2024/01/06 08:30:53;;;;;;;8.77;4.33;;;3.70;99.90;;;;;;4992103;28;20057;-83
2024/01/06 08:33:18;;;;;;;6.40;3.77;;;3.70;99.90;;;;;;4992715;28;20149;-83
2024/01/06 08:35:44;;;;;;;5.83;3.97;;;3.70;99.90;;;;;;4994432;28;20101;-82
2024/01/06 08:38:10;;;;;;;7.43;4.33;;;3.70;99.90;;;;;;4990230;28;20098;-82
2024/01/06 08:40:36;;;;;;;9.47;4.43;;;3.70;99.90;;;;;;4992348;28;20034;-83
2024/01/06 08:43:02;;;;;;;10.00;4.37;;;3.70;99.90;;;;;;4992188;28;20029;-83
2024/01/06 08:45:28;;;;;;;7.83;3.33;;;3.70;99.90;;;;;;4980398;28;20039;-83
2024/01/06 08:47:53;;;;;;;8.33;3.57;;;3.80;99.90;;;;;;4997800;28;20026;-82
2024/01/06 08:50:19;;;;;;;6.10;3.50;;;3.80;99.90;;;;;;4994381;28;21746;-83
2024/01/06 08:52:44;;;;;;;7.33;3.23;;;3.80;99.90;;;;;;5000588;28;20098;-83
2024/01/06 08:55:10;;;;;;;8.50;3.30;;;3.80;99.90;;;;;;4999621;28;20062;-83
2024/01/06 08:57:36;;;;;;;6.67;3.60;;;3.90;99.90;;;;;;4997525;28;20057;-83
2024/01/06 09:00:03;;;;;;;5.20;2.73;;;3.90;99.90;;;;;;5002536;28;20034;-80
2024/01/06 09:02:29;;;;;;;6.83;2.77;;;3.90;99.90;;;;;;5002314;28;20084;-83
2024/01/06 09:04:54;;;;;;;6.37;2.90;;;4.00;99.90;;;;;;5002341;28;20101;-83
2024/01/06 09:07:20;;;;;;;8.23;4.07;;;4.00;99.90;;;;;;5001103;28;20030;-82
2024/01/06 09:09:45;;;;;;;7.27;3.23;;;3.90;99.90;;;;;;5002637;28;20045;-81
2024/01/06 09:12:11;;;;;;;7.57;3.20;;;3.90;99.90;;;;;;5001369;28;20037;-80
2024/01/06 09:14:37;;;;;;;8.37;3.40;;;4.00;99.90;;;;;;5005943;28;20043;-80
2024/01/06 09:17:04;;;;;;;10.27;4.77;;;3.90;99.90;;;;;;5004067;28;20035;-81
2024/01/06 09:19:30;;;;;;;8.07;4.57;;;3.90;99.90;;;;;;5001543;28;20047;-81
2024/01/06 09:21:56;;;;;;;11.47;5.23;;;3.90;99.90;;;;;;5006626;28;20062;-81
2024/01/06 09:24:21;;;;;;;11.93;5.73;;;3.90;99.90;;;;;;5004069;28;20035;-80
2024/01/06 09:26:48;;;;;;;9.27;5.03;;;3.90;99.90;;;;;;5000829;28;20093;-81
2024/01/06 09:29:13;;;;;;;10.93;5.57;;;3.90;99.90;;;;;;5001943;28;20127;-81
2024/01/06 09:31:39;;;;;;;8.90;5.20;;;3.90;99.90;;;;;;5000325;28;20141;-81
2024/01/06 09:34:06;;;;;;;9.33;5.40;;;3.90;99.90;;;;;;4999079;28;20026;-81
2024/01/06 09:36:31;;;;;;;11.37;5.80;;;4.00;99.90;;;;;;5001472;28;20038;-81
2024/01/06 09:38:58;;;;;;;11.57;5.47;;;4.00;99.90;;;;;;5001006;28;20037;-81
2024/01/06 09:41:24;;;;;;;8.50;4.80;;;4.00;99.90;;;;;;4998369;28;20058;-81
2024/01/06 09:43:50;;;;;;;8.93;4.60;;;4.00;99.90;;;;;;5004293;28;20033;-81
2024/01/06 09:46:35;;;;;;;11.07;5.30;;;4.00;99.90;;;;;;5002935;28;20037;-80
2024/01/06 09:49:01;;;;;;;9.02;4.57;;;4.00;99.90;;;;;;5003007;28;20034;-81
2024/01/06 09:51:27;;;;;;;11.03;4.60;;;4.00;99.90;;;;;;5004011;28;20040;-81
2024/01/06 09:53:59;;;;;;;8.33;4.47;;;4.00;99.90;;;;;;5002634;28;20085;-81
2024/01/06 09:56:26;;;;;;;7.27;4.47;;;4.00;99.90;;;;;;4985258;28;20038;-80
2024/01/06 09:58:52;;;;;;;8.60;4.13;;;4.00;99.90;;;;;;5000483;28;20038;-82
2024/01/06 10:01:18;;;;;;;8.13;4.00;;;4.00;99.90;;;;;;5003392;28;20034;-80
2024/01/06 10:03:45;;;;;;;8.23;3.80;;;4.00;99.90;;;;;;5001917;28;20027;-81
2024/01/06 10:06:11;;;;;;;9.77;3.80;;;4.00;99.90;;;;;;5000849;28;20060;-81
2024/01/06 10:08:40;;;;;;;9.00;3.93;;;4.00;99.90;;;;;;5004982;28;20126;-81
2024/01/06 10:11:08;;;;;;;9.57;3.93;;;4.00;99.90;;;;;;5001503;28;20049;-81
2024/01/06 10:13:33;;;;;;;10.63;3.73;;;4.00;99.90;;;;;;5004562;28;20034;-81
2024/01/06 10:15:59;;;;;;;9.57;3.83;;;4.00;99.90;;;;;;5003993;28;20038;-81
2024/01/06 10:18:26;;;;;;;8.10;3.63;;;4.00;99.90;;;;;;5000447;28;20033;-80
2024/01/06 10:20:53;;;;;;;7.90;4.20;;;4.00;99.90;;;;;;5000303;28;20026;-81
2024/01/06 10:23:19;;;;;;;9.07;3.90;;;4.00;99.90;;;;;;4983385;28;20060;-82
2024/01/06 10:25:44;;;;;;;9.90;3.93;;;4.00;99.90;;;;;;4998872;28;20019;-80
2024/01/06 10:28:15;;;;;;;6.30;4.03;;;4.10;99.90;;;;;;4999295;28;20049;-81
2024/01/06 10:30:41;;;;;;;10.00;4.87;;;4.10;99.90;;;;;;4998229;28;20021;-81
2024/01/06 10:33:10;;;;;;;10.27;4.97;;;4.10;99.90;;;;;;4997257;28;20021;-81
2024/01/06 10:35:37;;;;;;;10.90;4.23;;;4.10;99.90;;;;;;4994833;28;20659;-82
2024/01/06 10:38:03;;;;;;;14.63;4.87;;;4.20;99.90;;;;;;4995700;28;20026;-82
2024/01/06 10:40:29;;;;;;;9.27;4.77;;;4.20;99.90;;;;;;4996680;28;20049;-82
2024/01/06 10:42:57;;;;;;;8.80;5.03;;;4.20;99.90;;;;;;4974837;28;20037;-81
2024/01/06 10:45:23;;;;;;;10.50;4.30;;;4.30;99.90;;;;;;4993704;28;20094;-82
2024/01/06 10:47:49;;;;;;;10.00;4.40;;;4.30;99.90;;;;;;4993075;28;20113;-82
2024/01/06 10:50:17;;;;;;;10.80;5.00;;;4.30;99.90;;;;;;4994882;28;20027;-82
2024/01/06 10:52:43;;;;;;;8.87;4.90;;;4.30;99.90;;;;;;4997310;28;20049;-82
2024/01/06 10:55:09;;;;;;;11.37;4.90;;;4.30;99.90;;;;;;4991621;28;20034;-81
2024/01/06 10:57:37;;;;;;;13.70;5.27;;;4.40;99.90;;;;;;4994065;28;20165;-82
2024/01/06 11:00:05;;;;;;;11.43;4.33;;;4.40;99.90;;;;;;4993554;28;20027;-82
2024/01/06 11:02:31;;;;;;;10.13;5.27;;;4.40;99.90;;;;;;4995786;28;20049;-82
2024/01/06 11:04:57;;;;;;;11.23;4.63;;;4.40;99.90;;;;;;4996780;28;20137;-81
2024/01/06 11:07:25;;;;;;;8.97;4.47;;;4.40;99.90;;;;;;4997335;28;20050;-83
2024/01/06 11:09:58;;;;;;;9.93;4.67;;;4.40;99.90;;;;;;4997612;28;20057;-83
2024/01/06 11:12:26;;;;;;;8.67;4.47;;;4.50;99.90;;;;;;4977367;28;20535;-83
2024/01/06 11:14:52;;;;;;;9.57;5.50;;;4.50;99.90;;;;;;4993217;28;20057;-82
2024/01/06 11:17:53;;;;;;;12.30;5.00;;;4.40;99.90;;;;;;4994522;28;20071;-82
2024/01/06 11:20:22;;;;;;;10.10;4.80;;;4.40;99.90;;;;;;4994254;28;20076;-82
2024/01/06 11:22:48;;;;;;;10.77;5.13;;;4.40;99.90;;;;;;4992285;28;20064;-82
2024/01/06 11:25:16;;;;;;;12.57;5.57;;;4.40;99.90;;;;;;4977491;28;20038;-83
2024/01/06 11:27:44;;;;;;;8.43;4.67;;;4.40;99.90;;;;;;4978153;28;20074;-82
2024/01/06 11:30:32;;;;;;;8.57;4.97;;;4.40;99.90;;;;;;4996021;28;20029;-82
2024/01/06 11:32:58;;;;;;;12.50;5.07;;;4.40;99.90;;;;;;4998649;28;20472;-82
2024/01/06 11:35:27;;;;;;;12.07;5.60;;;4.40;99.90;;;;;;4995937;28;20121;-82
2024/01/06 11:37:55;;;;;;;12.27;4.93;;;4.40;99.90;;;;;;4983235;28;20026;-81
2024/01/06 11:40:20;;;;;;;10.00;4.93;;;4.30;99.90;;;;;;5000898;28;20045;-81
2024/01/06 11:43:07;;;;;;;9.90;4.93;;;4.30;99.90;;;;;;5000838;28;20037;-82
2024/01/06 11:45:33;;;;;;;8.40;5.30;;;4.30;99.90;;;;;;4997696;28;20096;-82
2024/01/06 11:48:07;;;;;;;14.67;5.83;;;4.30;99.90;;;;;;4998836;28;20038;-82
2024/01/06 11:50:35;;;;;;;17.03;6.10;;;4.40;99.90;;;;;;4994516;28;20102;-82
2024/01/06 11:53:01;;;;;;;11.90;5.97;;;4.40;99.90;;;;;;4994104;28;20050;-82
2024/01/06 11:55:34;;;;;;;12.03;6.47;;;4.40;99.90;;;;;;4992399;28;20034;-82
2024/01/06 11:58:02;;;;;;;12.87;6.27;;;4.40;99.90;;;;;;4994103;28;20040;-82
2024/01/06 12:00:32;;;;;;;13.80;6.60;;;4.40;99.90;;;;;;4994640;28;20050;-81
2024/01/06 12:02:59;;;;;;;6.90;4.40;;;4.40;99.90;;;;;;4992033;28;20030;-82
2024/01/06 12:05:26;;;;;;;8.97;5.23;;;4.30;99.90;;;;;;4975916;28;20041;-81
2024/01/06 12:07:56;;;;;;;13.50;5.40;;;4.30;99.90;;;;;;4995287;28;20030;-82
2024/01/06 12:10:22;;;;;;;10.70;5.20;;;4.30;99.90;;;;;;4994986;28;20061;-81
2024/01/06 12:12:59;;;;;;;18.50;5.40;;;4.30;99.90;;;;;;4978030;28;20045;-82
2024/01/06 12:15:25;;;;;;;9.27;5.00;;;4.30;99.90;;;;;;4990161;28;20026;-81
2024/01/06 12:17:50;;;;;;;10.13;5.10;;;4.30;99.90;;;;;;4975295;28;20102;-82
2024/01/06 12:20:16;;;;;;;10.77;5.37;;;4.30;99.90;;;;;;4991570;28;20053;-83
2024/01/06 12:22:42;;;;;;;12.63;6.17;;;4.30;99.90;;;;;;4991241;28;20030;-83
2024/01/06 12:25:09;;;;;;;8.13;3.90;;;4.30;99.90;;;;;;4993592;28;20077;-82
2024/01/06 12:27:34;;;;;;;11.33;4.30;;;4.20;99.90;;;;;;4992492;28;20087;-82
2024/01/06 12:30:00;;;;;;;7.47;4.50;;;4.20;99.90;;;;;;4974552;28;20031;-82
2024/01/06 12:32:26;;;;;;;9.33;5.07;;;4.10;99.90;;;;;;4993618;28;20084;-82
2024/01/06 12:34:51;;;;;;;8.57;4.30;;;4.10;99.90;;;;;;4992825;28;20026;-82
2024/01/06 12:37:17;;;;;;;8.30;5.00;;;4.00;99.90;;;;;;4991380;28;20037;-82
2024/01/06 12:39:45;;;;;;;10.70;5.83;;;4.00;99.90;;;;;;4973385;28;20026;-82
2024/01/06 12:42:11;;;;;;;13.27;6.20;;;4.00;99.90;;;;;;4991870;28;20030;-82
2024/01/06 12:44:38;;;;;;;9.40;5.53;;;4.00;99.90;;;;;;4992876;28;20041;-82